sensor_id;sensor_type;location;lat;lon;timestamp;P1;durP1;ratioP1;P2;durP2;ratioP2
16845;SDS011;8539;53.188;8.696;2022-12-26T00:01:54;52.72;;;22.92;;
16845;SDS011;8539;53.188;8.696;2022-12-26T00:04:21;52.17;;;21.27;;
16845;SDS011;8539;53.188;8.696;2022-12-26T00:06:48;44.25;;;21.30;;
16845;SDS011;8539;53.188;8.696;2022-12-26T00:09:14;36.15;;;20.05;;
16845;SDS011;8539;53.188;8.696;2022-12-26T00:11:42;42.45;;;21.75;;
16845;SDS011;8539;53.188;8.696;2022-12-26T00:14:10;38.47;;;19.45;;
16845;SDS011;8539;53.188;8.696;2022-12-26T00:16:39;43.47;;;20.38;;
16845;SDS011;8539;53.188;8.696;2022-12-26T00:19:06;34.60;;;19.65;;
16845;SDS011;8539;53.188;8.696;2022-12-26T00:21:33;62.15;;;23.35;;
16845;SDS011;8539;53.188;8.696;2022-12-26T00:23:59;32.03;;;19.52;;
16845;SDS011;8539;53.188;8.696;2022-12-26T00:26:27;103.55;;;27.13;;
16845;SDS011;8539;53.188;8.696;2022-12-26T00:28:55;48.17;;;20.88;;
16845;SDS011;8539;53.188;8.696;2022-12-26T00:31:23;75.88;;;24.80;;
16845;SDS011;8539;53.188;8.696;2022-12-26T00:33:53;65.75;;;22.83;;
16845;SDS011;8539;53.188;8.696;2022-12-26T00:36:20;163.30;;;33.25;;
16845;SDS011;8539;53.188;8.696;2022-12-26T00:38:48;96.07;;;25.52;;
16845;SDS011;8539;53.188;8.696;2022-12-26T00:41:15;45.50;;;20.30;;
16845;SDS011;8539;53.188;8.696;2022-12-26T00:43:44;61.13;;;23.50;;
16845;SDS011;8539;53.188;8.696;2022-12-26T00:46:11;53.03;;;21.92;;
16845;SDS011;8539;53.188;8.696;2022-12-26T00:48:37;38.25;;;18.98;;
16845;SDS011;8539;53.188;8.696;2022-12-26T00:51:03;79.57;;;22.27;;
16845;SDS011;8539;53.188;8.696;2022-12-26T00:53:30;78.57;;;23.95;;
16845;SDS011;8539;53.188;8.696;2022-12-26T00:55:56;41.22;;;20.55;;
16845;SDS011;8539;53.188;8.696;2022-12-26T00:58:23;103.85;;;27.42;;
16845;SDS011;8539;53.188;8.696;2022-12-26T01:00:50;64.18;;;21.42;;
16845;SDS011;8539;53.188;8.696;2022-12-26T01:03:16;42.00;;;18.38;;
16845;SDS011;8539;53.188;8.696;2022-12-26T01:05:49;35.78;;;18.90;;
16845;SDS011;8539;53.188;8.696;2022-12-26T01:08:16;65.88;;;24.08;;
16845;SDS011;8539;53.188;8.696;2022-12-26T01:10:43;63.22;;;21.20;;
16845;SDS011;8539;53.188;8.696;2022-12-26T01:13:11;60.70;;;20.88;;
16845;SDS011;8539;53.188;8.696;2022-12-26T01:15:37;46.75;;;19.52;;
16845;SDS011;8539;53.188;8.696;2022-12-26T01:18:04;34.58;;;18.90;;
16845;SDS011;8539;53.188;8.696;2022-12-26T01:20:31;45.05;;;18.45;;
16845;SDS011;8539;53.188;8.696;2022-12-26T01:22:57;32.67;;;18.33;;
16845;SDS011;8539;53.188;8.696;2022-12-26T01:25:23;39.58;;;18.38;;
16845;SDS011;8539;53.188;8.696;2022-12-26T01:27:49;34.42;;;17.95;;
16845;SDS011;8539;53.188;8.696;2022-12-26T01:30:16;39.50;;;18.10;;
16845;SDS011;8539;53.188;8.696;2022-12-26T01:32:43;53.45;;;17.23;;
16845;SDS011;8539;53.188;8.696;2022-12-26T01:35:09;42.20;;;17.60;;
16845;SDS011;8539;53.188;8.696;2022-12-26T01:37:35;119.20;;;24.42;;
16845;SDS011;8539;53.188;8.696;2022-12-26T01:40:01;72.97;;;21.77;;
16845;SDS011;8539;53.188;8.696;2022-12-26T01:42:34;32.40;;;16.55;;
16845;SDS011;8539;53.188;8.696;2022-12-26T01:45:09;64.75;;;19.88;;
16845;SDS011;8539;53.188;8.696;2022-12-26T01:47:48;50.95;;;19.30;;
16845;SDS011;8539;53.188;8.696;2022-12-26T01:50:32;50.38;;;18.30;;
16845;SDS011;8539;53.188;8.696;2022-12-26T01:53:07;97.60;;;23.17;;
16845;SDS011;8539;53.188;8.696;2022-12-26T01:55:41;60.55;;;17.80;;
16845;SDS011;8539;53.188;8.696;2022-12-26T01:58:11;43.83;;;18.00;;
16845;SDS011;8539;53.188;8.696;2022-12-26T02:00:42;41.17;;;17.10;;
16845;SDS011;8539;53.188;8.696;2022-12-26T02:03:08;78.80;;;21.02;;
16845;SDS011;8539;53.188;8.696;2022-12-26T02:05:55;71.53;;;19.27;;
16845;SDS011;8539;53.188;8.696;2022-12-26T02:08:24;53.08;;;17.65;;
16845;SDS011;8539;53.188;8.696;2022-12-26T02:13:47;37.80;;;18.73;;
16845;SDS011;8539;53.188;8.696;2022-12-26T02:16:14;69.95;;;19.70;;
16845;SDS011;8539;53.188;8.696;2022-12-26T02:18:41;42.92;;;17.85;;
16845;SDS011;8539;53.188;8.696;2022-12-26T02:48:57;45.50;;;19.15;;
16845;SDS011;8539;53.188;8.696;2022-12-26T02:57:36;39.92;;;17.63;;
16845;SDS011;8539;53.188;8.696;2022-12-26T03:00:28;59.35;;;19.60;;
16845;SDS011;8539;53.188;8.696;2022-12-26T03:03:17;35.40;;;18.42;;
16845;SDS011;8539;53.188;8.696;2022-12-26T03:06:06;38.83;;;18.05;;
16845;SDS011;8539;53.188;8.696;2022-12-26T03:08:57;42.17;;;18.98;;
16845;SDS011;8539;53.188;8.696;2022-12-26T03:11:47;34.65;;;19.27;;
16845;SDS011;8539;53.188;8.696;2022-12-26T03:14:39;38.15;;;17.73;;
16845;SDS011;8539;53.188;8.696;2022-12-26T03:17:24;34.00;;;19.10;;
16845;SDS011;8539;53.188;8.696;2022-12-26T03:19:58;35.90;;;15.48;;
16845;SDS011;8539;53.188;8.696;2022-12-26T03:25:12;33.28;;;17.00;;
16845;SDS011;8539;53.188;8.696;2022-12-26T03:30:52;45.83;;;20.45;;
16845;SDS011;8539;53.188;8.696;2022-12-26T03:36:33;45.70;;;19.92;;
16845;SDS011;8539;53.188;8.696;2022-12-26T03:41:34;41.00;;;19.85;;
16845;SDS011;8539;53.188;8.696;2022-12-26T03:44:46;39.78;;;19.40;;
16845;SDS011;8539;53.188;8.696;2022-12-26T03:47:38;41.47;;;17.77;;
16845;SDS011;8539;53.188;8.696;2022-12-26T03:53:21;29.88;;;16.05;;
16845;SDS011;8539;53.188;8.696;2022-12-26T03:56:24;32.22;;;16.25;;
16845;SDS011;8539;53.188;8.696;2022-12-26T03:59:33;31.33;;;16.35;;
16845;SDS011;8539;53.188;8.696;2022-12-26T04:02:31;34.85;;;15.88;;
16845;SDS011;8539;53.188;8.696;2022-12-26T04:05:17;27.55;;;14.82;;
16845;SDS011;8539;53.188;8.696;2022-12-26T04:08:11;25.00;;;13.90;;
16845;SDS011;8539;53.188;8.696;2022-12-26T04:11:00;23.02;;;13.27;;
16845;SDS011;8539;53.188;8.696;2022-12-26T04:14:19;24.35;;;13.98;;
16845;SDS011;8539;53.188;8.696;2022-12-26T04:17:08;26.55;;;15.10;;
16845;SDS011;8539;53.188;8.696;2022-12-26T04:23:30;22.10;;;13.10;;
16845;SDS011;8539;53.188;8.696;2022-12-26T04:26:36;20.75;;;12.02;;
16845;SDS011;8539;53.188;8.696;2022-12-26T04:29:31;19.70;;;12.10;;
16845;SDS011;8539;53.188;8.696;2022-12-26T04:32:31;22.90;;;12.55;;
16845;SDS011;8539;53.188;8.696;2022-12-26T04:35:19;21.33;;;11.88;;
16845;SDS011;8539;53.188;8.696;2022-12-26T04:38:09;20.08;;;12.30;;
16845;SDS011;8539;53.188;8.696;2022-12-26T04:40:57;22.55;;;13.50;;
16845;SDS011;8539;53.188;8.696;2022-12-26T04:43:44;22.23;;;13.15;;
16845;SDS011;8539;53.188;8.696;2022-12-26T04:46:30;24.08;;;14.70;;
16845;SDS011;8539;53.188;8.696;2022-12-26T04:48:58;24.83;;;13.65;;
16845;SDS011;8539;53.188;8.696;2022-12-26T04:51:45;25.63;;;14.55;;
16845;SDS011;8539;53.188;8.696;2022-12-26T04:54:12;26.90;;;15.18;;
16845;SDS011;8539;53.188;8.696;2022-12-26T04:56:38;24.35;;;14.27;;
16845;SDS011;8539;53.188;8.696;2022-12-26T04:59:04;22.63;;;14.30;;
16845;SDS011;8539;53.188;8.696;2022-12-26T05:01:30;27.10;;;15.13;;
16845;SDS011;8539;53.188;8.696;2022-12-26T05:04:15;21.45;;;13.77;;
16845;SDS011;8539;53.188;8.696;2022-12-26T05:07:00;22.30;;;14.30;;
16845;SDS011;8539;53.188;8.696;2022-12-26T05:09:47;22.52;;;13.32;;
16845;SDS011;8539;53.188;8.696;2022-12-26T05:12:16;22.95;;;14.20;;
16845;SDS011;8539;53.188;8.696;2022-12-26T05:14:42;24.58;;;15.27;;
16845;SDS011;8539;53.188;8.696;2022-12-26T05:17:09;25.02;;;14.80;;
16845;SDS011;8539;53.188;8.696;2022-12-26T05:19:56;24.77;;;14.20;;
16845;SDS011;8539;53.188;8.696;2022-12-26T05:22:42;28.58;;;16.55;;
16845;SDS011;8539;53.188;8.696;2022-12-26T05:25:29;32.33;;;16.33;;
16845;SDS011;8539;53.188;8.696;2022-12-26T05:28:16;27.42;;;15.07;;
16845;SDS011;8539;53.188;8.696;2022-12-26T05:31:01;29.60;;;16.08;;
16845;SDS011;8539;53.188;8.696;2022-12-26T05:33:28;26.30;;;13.95;;
16845;SDS011;8539;53.188;8.696;2022-12-26T05:36:13;25.70;;;15.85;;
16845;SDS011;8539;53.188;8.696;2022-12-26T05:38:41;25.92;;;16.52;;
16845;SDS011;8539;53.188;8.696;2022-12-26T05:41:07;24.95;;;15.48;;
16845;SDS011;8539;53.188;8.696;2022-12-26T05:43:33;28.73;;;15.73;;
16845;SDS011;8539;53.188;8.696;2022-12-26T05:45:59;26.80;;;15.57;;
16845;SDS011;8539;53.188;8.696;2022-12-26T05:48:26;25.80;;;15.50;;
16845;SDS011;8539;53.188;8.696;2022-12-26T05:50:52;24.63;;;14.65;;
16845;SDS011;8539;53.188;8.696;2022-12-26T05:53:22;24.33;;;14.63;;
16845;SDS011;8539;53.188;8.696;2022-12-26T05:55:48;24.02;;;15.38;;
16845;SDS011;8539;53.188;8.696;2022-12-26T05:58:14;25.85;;;16.10;;
16845;SDS011;8539;53.188;8.696;2022-12-26T06:00:40;26.27;;;15.60;;
16845;SDS011;8539;53.188;8.696;2022-12-26T06:03:06;28.30;;;15.68;;
16845;SDS011;8539;53.188;8.696;2022-12-26T06:05:32;26.50;;;15.48;;
16845;SDS011;8539;53.188;8.696;2022-12-26T06:07:58;24.95;;;16.42;;
16845;SDS011;8539;53.188;8.696;2022-12-26T06:10:24;28.42;;;15.95;;
16845;SDS011;8539;53.188;8.696;2022-12-26T06:12:51;23.58;;;14.90;;
16845;SDS011;8539;53.188;8.696;2022-12-26T06:15:17;25.35;;;16.10;;
16845;SDS011;8539;53.188;8.696;2022-12-26T06:17:43;26.40;;;16.88;;
16845;SDS011;8539;53.188;8.696;2022-12-26T06:20:10;27.58;;;16.25;;
16845;SDS011;8539;53.188;8.696;2022-12-26T06:22:36;27.63;;;16.58;;
16845;SDS011;8539;53.188;8.696;2022-12-26T06:25:02;24.95;;;16.52;;
16845;SDS011;8539;53.188;8.696;2022-12-26T06:27:28;32.15;;;19.35;;
16845;SDS011;8539;53.188;8.696;2022-12-26T06:29:54;28.88;;;17.88;;
16845;SDS011;8539;53.188;8.696;2022-12-26T06:32:20;33.17;;;18.73;;
16845;SDS011;8539;53.188;8.696;2022-12-26T06:34:46;29.67;;;18.15;;
16845;SDS011;8539;53.188;8.696;2022-12-26T06:37:13;34.22;;;19.15;;
16845;SDS011;8539;53.188;8.696;2022-12-26T06:39:39;28.92;;;17.88;;
16845;SDS011;8539;53.188;8.696;2022-12-26T06:42:05;28.55;;;18.13;;
16845;SDS011;8539;53.188;8.696;2022-12-26T06:44:31;29.88;;;18.38;;
16845;SDS011;8539;53.188;8.696;2022-12-26T06:46:57;34.75;;;19.27;;
16845;SDS011;8539;53.188;8.696;2022-12-26T06:49:23;37.30;;;20.77;;
16845;SDS011;8539;53.188;8.696;2022-12-26T06:51:51;31.55;;;18.42;;
16845;SDS011;8539;53.188;8.696;2022-12-26T06:54:17;32.75;;;20.08;;
16845;SDS011;8539;53.188;8.696;2022-12-26T06:56:43;36.80;;;20.08;;
16845;SDS011;8539;53.188;8.696;2022-12-26T06:59:09;33.63;;;19.50;;
16845;SDS011;8539;53.188;8.696;2022-12-26T07:01:36;37.38;;;21.25;;
16845;SDS011;8539;53.188;8.696;2022-12-26T07:04:02;33.13;;;20.95;;
16845;SDS011;8539;53.188;8.696;2022-12-26T07:09:00;36.35;;;20.63;;
16845;SDS011;8539;53.188;8.696;2022-12-26T07:11:29;40.40;;;21.33;;
16845;SDS011;8539;53.188;8.696;2022-12-26T07:13:58;40.80;;;22.30;;
16845;SDS011;8539;53.188;8.696;2022-12-26T07:16:25;37.45;;;22.10;;
16845;SDS011;8539;53.188;8.696;2022-12-26T07:18:52;44.63;;;22.98;;
16845;SDS011;8539;53.188;8.696;2022-12-26T07:21:22;41.53;;;22.73;;
16845;SDS011;8539;53.188;8.696;2022-12-26T07:23:49;43.35;;;24.10;;
16845;SDS011;8539;53.188;8.696;2022-12-26T07:26:15;42.78;;;23.25;;
16845;SDS011;8539;53.188;8.696;2022-12-26T07:28:42;42.55;;;23.27;;
16845;SDS011;8539;53.188;8.696;2022-12-26T07:31:08;46.67;;;25.23;;
16845;SDS011;8539;53.188;8.696;2022-12-26T07:33:39;39.17;;;24.63;;
16845;SDS011;8539;53.188;8.696;2022-12-26T07:36:05;39.30;;;22.35;;
16845;SDS011;8539;53.188;8.696;2022-12-26T07:38:32;43.38;;;24.40;;
16845;SDS011;8539;53.188;8.696;2022-12-26T07:40:58;39.40;;;24.40;;
16845;SDS011;8539;53.188;8.696;2022-12-26T07:43:44;40.60;;;22.85;;
16845;SDS011;8539;53.188;8.696;2022-12-26T07:46:10;43.67;;;25.75;;
16845;SDS011;8539;53.188;8.696;2022-12-26T07:48:36;38.72;;;22.88;;
16845;SDS011;8539;53.188;8.696;2022-12-26T07:51:02;40.50;;;22.23;;
16845;SDS011;8539;53.188;8.696;2022-12-26T07:53:29;41.45;;;21.45;;
16845;SDS011;8539;53.188;8.696;2022-12-26T07:55:58;40.13;;;22.63;;
16845;SDS011;8539;53.188;8.696;2022-12-26T07:58:25;38.05;;;21.85;;
16845;SDS011;8539;53.188;8.696;2022-12-26T08:00:51;38.53;;;22.48;;
16845;SDS011;8539;53.188;8.696;2022-12-26T08:03:20;38.50;;;21.38;;
16845;SDS011;8539;53.188;8.696;2022-12-26T08:05:49;42.70;;;21.75;;
16845;SDS011;8539;53.188;8.696;2022-12-26T08:08:16;39.17;;;21.45;;
16845;SDS011;8539;53.188;8.696;2022-12-26T08:10:42;38.58;;;21.10;;
16845;SDS011;8539;53.188;8.696;2022-12-26T08:16:42;36.30;;;20.05;;
16845;SDS011;8539;53.188;8.696;2022-12-26T08:19:09;37.78;;;21.17;;
16845;SDS011;8539;53.188;8.696;2022-12-26T08:21:35;35.85;;;20.60;;
16845;SDS011;8539;53.188;8.696;2022-12-26T08:24:02;35.10;;;20.08;;
16845;SDS011;8539;53.188;8.696;2022-12-26T08:26:28;32.80;;;18.90;;
16845;SDS011;8539;53.188;8.696;2022-12-26T08:28:54;34.88;;;21.05;;
16845;SDS011;8539;53.188;8.696;2022-12-26T08:31:21;32.78;;;18.05;;
16845;SDS011;8539;53.188;8.696;2022-12-26T08:33:47;36.25;;;19.67;;
16845;SDS011;8539;53.188;8.696;2022-12-26T08:36:14;36.90;;;19.17;;
16845;SDS011;8539;53.188;8.696;2022-12-26T08:38:43;34.92;;;18.38;;
16845;SDS011;8539;53.188;8.696;2022-12-26T08:41:10;34.15;;;18.45;;
16845;SDS011;8539;53.188;8.696;2022-12-26T08:43:36;34.40;;;18.40;;
16845;SDS011;8539;53.188;8.696;2022-12-26T08:46:04;33.88;;;17.05;;
16845;SDS011;8539;53.188;8.696;2022-12-26T08:48:33;29.52;;;17.30;;
16845;SDS011;8539;53.188;8.696;2022-12-26T08:51:00;30.25;;;17.23;;
16845;SDS011;8539;53.188;8.696;2022-12-26T08:53:28;28.70;;;17.90;;
16845;SDS011;8539;53.188;8.696;2022-12-26T08:55:57;27.67;;;15.98;;
16845;SDS011;8539;53.188;8.696;2022-12-26T08:58:24;24.83;;;15.93;;
16845;SDS011;8539;53.188;8.696;2022-12-26T09:00:50;31.10;;;17.77;;
16845;SDS011;8539;53.188;8.696;2022-12-26T09:03:16;29.77;;;17.77;;
16845;SDS011;8539;53.188;8.696;2022-12-26T09:05:48;32.40;;;18.33;;
16845;SDS011;8539;53.188;8.696;2022-12-26T09:08:14;27.63;;;16.63;;
16845;SDS011;8539;53.188;8.696;2022-12-26T09:10:40;30.80;;;17.83;;
16845;SDS011;8539;53.188;8.696;2022-12-26T09:13:06;28.10;;;17.13;;
16845;SDS011;8539;53.188;8.696;2022-12-26T09:15:32;32.50;;;18.25;;
16845;SDS011;8539;53.188;8.696;2022-12-26T09:17:58;28.27;;;17.25;;
16845;SDS011;8539;53.188;8.696;2022-12-26T09:20:24;31.73;;;18.42;;
16845;SDS011;8539;53.188;8.696;2022-12-26T09:22:50;33.55;;;17.98;;
16845;SDS011;8539;53.188;8.696;2022-12-26T09:27:52;36.25;;;21.13;;
16845;SDS011;8539;53.188;8.696;2022-12-26T09:30:18;28.75;;;17.02;;
16845;SDS011;8539;53.188;8.696;2022-12-26T09:32:45;32.15;;;17.95;;
16845;SDS011;8539;53.188;8.696;2022-12-26T09:35:11;33.55;;;19.40;;
16845;SDS011;8539;53.188;8.696;2022-12-26T09:37:37;33.58;;;19.75;;
16845;SDS011;8539;53.188;8.696;2022-12-26T09:40:04;37.05;;;17.65;;
16845;SDS011;8539;53.188;8.696;2022-12-26T09:45:17;29.88;;;16.52;;
16845;SDS011;8539;53.188;8.696;2022-12-26T09:47:55;35.85;;;18.25;;
16845;SDS011;8539;53.188;8.696;2022-12-26T09:50:30;30.67;;;16.15;;
16845;SDS011;8539;53.188;8.696;2022-12-26T09:53:03;27.00;;;18.27;;
16845;SDS011;8539;53.188;8.696;2022-12-26T09:58:27;27.27;;;15.65;;
16845;SDS011;8539;53.188;8.696;2022-12-26T10:01:07;28.58;;;16.83;;
16845;SDS011;8539;53.188;8.696;2022-12-26T10:03:51;26.40;;;16.27;;
16845;SDS011;8539;53.188;8.696;2022-12-26T10:08:57;31.45;;;17.55;;
16845;SDS011;8539;53.188;8.696;2022-12-26T10:17:30;24.98;;;16.80;;
16845;SDS011;8539;53.188;8.696;2022-12-26T10:20:11;29.95;;;15.60;;
16845;SDS011;8539;53.188;8.696;2022-12-26T10:25:19;30.40;;;15.25;;
16845;SDS011;8539;53.188;8.696;2022-12-26T10:27:49;23.33;;;14.13;;
16845;SDS011;8539;53.188;8.696;2022-12-26T10:30:20;21.77;;;14.25;;
16845;SDS011;8539;53.188;8.696;2022-12-26T10:33:03;19.90;;;13.00;;
16845;SDS011;8539;53.188;8.696;2022-12-26T10:35:43;18.90;;;12.57;;
16845;SDS011;8539;53.188;8.696;2022-12-26T10:38:29;21.13;;;12.38;;
16845;SDS011;8539;53.188;8.696;2022-12-26T10:41:22;20.60;;;11.13;;
16845;SDS011;8539;53.188;8.696;2022-12-26T10:43:50;18.70;;;11.38;;
16845;SDS011;8539;53.188;8.696;2022-12-26T10:48:58;20.58;;;10.60;;
16845;SDS011;8539;53.188;8.696;2022-12-26T10:51:25;13.50;;;8.93;;
16845;SDS011;8539;53.188;8.696;2022-12-26T10:53:54;14.75;;;9.77;;
16845;SDS011;8539;53.188;8.696;2022-12-26T10:56:21;14.40;;;9.73;;
16845;SDS011;8539;53.188;8.696;2022-12-26T10:59:12;15.45;;;10.48;;
16845;SDS011;8539;53.188;8.696;2022-12-26T11:01:43;17.70;;;9.77;;
16845;SDS011;8539;53.188;8.696;2022-12-26T11:04:16;12.75;;;9.05;;
16845;SDS011;8539;53.188;8.696;2022-12-26T11:06:49;10.73;;;8.55;;
16845;SDS011;8539;53.188;8.696;2022-12-26T11:09:22;14.90;;;9.40;;
16845;SDS011;8539;53.188;8.696;2022-12-26T11:11:57;13.25;;;8.45;;
16845;SDS011;8539;53.188;8.696;2022-12-26T11:16:52;16.88;;;8.80;;
16845;SDS011;8539;53.188;8.696;2022-12-26T11:21:54;16.35;;;7.68;;
16845;SDS011;8539;53.188;8.696;2022-12-26T11:27:39;10.82;;;7.47;;
16845;SDS011;8539;53.188;8.696;2022-12-26T11:30:18;11.00;;;7.57;;
16845;SDS011;8539;53.188;8.696;2022-12-26T11:32:47;13.55;;;7.00;;
16845;SDS011;8539;53.188;8.696;2022-12-26T11:37:44;11.20;;;6.90;;
16845;SDS011;8539;53.188;8.696;2022-12-26T11:40:20;10.70;;;7.25;;
16845;SDS011;8539;53.188;8.696;2022-12-26T11:42:55;10.23;;;6.88;;
16845;SDS011;8539;53.188;8.696;2022-12-26T11:45:26;10.20;;;5.85;;
16845;SDS011;8539;53.188;8.696;2022-12-26T11:47:55;13.18;;;6.15;;
16845;SDS011;8539;53.188;8.696;2022-12-26T11:50:25;9.43;;;6.05;;
16845;SDS011;8539;53.188;8.696;2022-12-26T12:00:37;9.18;;;5.10;;
16845;SDS011;8539;53.188;8.696;2022-12-26T12:03:09;9.77;;;4.82;;
16845;SDS011;8539;53.188;8.696;2022-12-26T12:05:47;7.60;;;5.18;;
16845;SDS011;8539;53.188;8.696;2022-12-26T12:19:15;2.78;;;1.55;;
16845;SDS011;8539;53.188;8.696;2022-12-26T12:32:17;2.78;;;1.05;;
16845;SDS011;8539;53.188;8.696;2022-12-26T12:40:34;5.45;;;1.20;;
16845;SDS011;8539;53.188;8.696;2022-12-26T12:52:21;5.57;;;1.48;;
16845;SDS011;8539;53.188;8.696;2022-12-26T12:55:15;8.88;;;1.30;;
16845;SDS011;8539;53.188;8.696;2022-12-26T12:58:29;4.13;;;1.15;;
16845;SDS011;8539;53.188;8.696;2022-12-26T13:04:19;4.95;;;1.42;;
16845;SDS011;8539;53.188;8.696;2022-12-26T13:06:50;5.10;;;1.40;;
16845;SDS011;8539;53.188;8.696;2022-12-26T13:09:32;5.35;;;0.98;;
16845;SDS011;8539;53.188;8.696;2022-12-26T13:12:10;6.80;;;1.23;;
16845;SDS011;8539;53.188;8.696;2022-12-26T13:14:43;4.45;;;0.93;;
16845;SDS011;8539;53.188;8.696;2022-12-26T13:17:28;4.22;;;1.17;;
16845;SDS011;8539;53.188;8.696;2022-12-26T13:20:13;4.80;;;1.30;;
16845;SDS011;8539;53.188;8.696;2022-12-26T13:22:50;1.35;;;0.75;;
16845;SDS011;8539;53.188;8.696;2022-12-26T13:25:41;3.00;;;1.08;;
16845;SDS011;8539;53.188;8.696;2022-12-26T13:28:16;9.35;;;1.33;;
16845;SDS011;8539;53.188;8.696;2022-12-26T13:30:44;3.58;;;0.95;;
16845;SDS011;8539;53.188;8.696;2022-12-26T13:33:16;6.07;;;0.95;;
16845;SDS011;8539;53.188;8.696;2022-12-26T13:36:31;3.13;;;0.95;;
16845;SDS011;8539;53.188;8.696;2022-12-26T13:41:28;5.55;;;0.77;;
16845;SDS011;8539;53.188;8.696;2022-12-26T14:02:55;7.03;;;1.15;;
16845;SDS011;8539;53.188;8.696;2022-12-26T14:27:52;8.00;;;2.20;;
16845;SDS011;8539;53.188;8.696;2022-12-26T14:30:21;4.88;;;1.05;;
16845;SDS011;8539;53.188;8.696;2022-12-26T14:33:19;4.78;;;1.38;;
16845;SDS011;8539;53.188;8.696;2022-12-26T14:41:14;11.82;;;1.80;;
16845;SDS011;8539;53.188;8.696;2022-12-26T14:44:46;9.65;;;1.52;;
16845;SDS011;8539;53.188;8.696;2022-12-26T14:49:17;8.23;;;2.03;;
16845;SDS011;8539;53.188;8.696;2022-12-26T14:51:49;8.32;;;1.55;;
16845;SDS011;8539;53.188;8.696;2022-12-26T14:56:52;13.60;;;2.42;;
16845;SDS011;8539;53.188;8.696;2022-12-26T14:59:25;7.30;;;2.28;;
16845;SDS011;8539;53.188;8.696;2022-12-26T15:16:07;6.47;;;2.28;;
16845;SDS011;8539;53.188;8.696;2022-12-26T15:21:50;12.90;;;2.95;;
16845;SDS011;8539;53.188;8.696;2022-12-26T15:25:00;15.35;;;2.70;;
16845;SDS011;8539;53.188;8.696;2022-12-26T15:30:25;15.68;;;2.60;;
16845;SDS011;8539;53.188;8.696;2022-12-26T15:33:17;8.30;;;2.10;;
16845;SDS011;8539;53.188;8.696;2022-12-26T15:36:02;8.40;;;2.20;;
16845;SDS011;8539;53.188;8.696;2022-12-26T15:38:56;12.02;;;3.17;;
16845;SDS011;8539;53.188;8.696;2022-12-26T15:41:44;8.05;;;2.05;;
16845;SDS011;8539;53.188;8.696;2022-12-26T15:44:41;8.65;;;1.73;;
16845;SDS011;8539;53.188;8.696;2022-12-26T15:50:05;9.07;;;2.20;;
16845;SDS011;8539;53.188;8.696;2022-12-26T15:58:48;13.90;;;2.30;;
16845;SDS011;8539;53.188;8.696;2022-12-26T16:01:36;15.05;;;2.72;;
16845;SDS011;8539;53.188;8.696;2022-12-26T16:14:48;21.83;;;3.00;;
16845;SDS011;8539;53.188;8.696;2022-12-26T16:17:24;15.80;;;2.42;;
16845;SDS011;8539;53.188;8.696;2022-12-26T16:19:50;13.82;;;2.60;;
16845;SDS011;8539;53.188;8.696;2022-12-26T16:25:21;10.43;;;3.00;;
16845;SDS011;8539;53.188;8.696;2022-12-26T16:27:53;13.85;;;2.72;;
16845;SDS011;8539;53.188;8.696;2022-12-26T16:30:25;8.63;;;2.40;;
16845;SDS011;8539;53.188;8.696;2022-12-26T16:32:55;11.85;;;3.50;;
16845;SDS011;8539;53.188;8.696;2022-12-26T16:35:30;8.45;;;3.08;;
16845;SDS011;8539;53.188;8.696;2022-12-26T16:37:58;10.57;;;3.03;;
16845;SDS011;8539;53.188;8.696;2022-12-26T16:40:28;15.25;;;2.65;;
16845;SDS011;8539;53.188;8.696;2022-12-26T16:43:06;10.82;;;3.55;;
16845;SDS011;8539;53.188;8.696;2022-12-26T16:45:49;15.68;;;3.33;;
16845;SDS011;8539;53.188;8.696;2022-12-26T16:48:23;17.13;;;3.88;;
16845;SDS011;8539;53.188;8.696;2022-12-26T16:50:59;14.40;;;3.10;;
16845;SDS011;8539;53.188;8.696;2022-12-26T17:00:22;12.25;;;2.72;;
16845;SDS011;8539;53.188;8.696;2022-12-26T17:02:50;6.70;;;2.40;;
16845;SDS011;8539;53.188;8.696;2022-12-26T17:05:20;15.68;;;4.47;;
16845;SDS011;8539;53.188;8.696;2022-12-26T17:07:54;11.32;;;3.58;;
16845;SDS011;8539;53.188;8.696;2022-12-26T17:12:50;21.30;;;4.18;;
16845;SDS011;8539;53.188;8.696;2022-12-26T17:15:18;8.02;;;2.88;;
16845;SDS011;8539;53.188;8.696;2022-12-26T17:17:48;13.88;;;3.20;;
16845;SDS011;8539;53.188;8.696;2022-12-26T17:22:48;11.45;;;2.75;;
16845;SDS011;8539;53.188;8.696;2022-12-26T17:30:34;17.58;;;2.85;;
16845;SDS011;8539;53.188;8.696;2022-12-26T17:35:50;10.77;;;3.22;;
16845;SDS011;8539;53.188;8.696;2022-12-26T17:38:25;9.02;;;2.75;;
16845;SDS011;8539;53.188;8.696;2022-12-26T17:40:53;7.68;;;2.75;;
16845;SDS011;8539;53.188;8.696;2022-12-26T17:43:28;14.68;;;4.60;;
16845;SDS011;8539;53.188;8.696;2022-12-26T17:45:56;12.50;;;3.75;;
16845;SDS011;8539;53.188;8.696;2022-12-26T17:48:22;14.18;;;3.22;;
16845;SDS011;8539;53.188;8.696;2022-12-26T17:50:52;11.55;;;5.20;;
16845;SDS011;8539;53.188;8.696;2022-12-26T17:53:30;9.10;;;2.42;;
16845;SDS011;8539;53.188;8.696;2022-12-26T17:56:06;13.85;;;3.35;;
16845;SDS011;8539;53.188;8.696;2022-12-26T17:58:36;12.43;;;3.00;;
16845;SDS011;8539;53.188;8.696;2022-12-26T18:01:03;12.90;;;4.15;;
16845;SDS011;8539;53.188;8.696;2022-12-26T18:03:29;6.18;;;2.65;;
16845;SDS011;8539;53.188;8.696;2022-12-26T18:05:55;14.13;;;4.20;;
16845;SDS011;8539;53.188;8.696;2022-12-26T18:10:50;10.48;;;5.15;;
16845;SDS011;8539;53.188;8.696;2022-12-26T18:13:19;21.58;;;3.75;;
16845;SDS011;8539;53.188;8.696;2022-12-26T18:15:46;12.73;;;4.30;;
16845;SDS011;8539;53.188;8.696;2022-12-26T18:18:19;14.77;;;4.05;;
16845;SDS011;8539;53.188;8.696;2022-12-26T18:20:48;14.27;;;4.05;;
16845;SDS011;8539;53.188;8.696;2022-12-26T18:23:14;9.23;;;3.63;;
16845;SDS011;8539;53.188;8.696;2022-12-26T18:25:41;15.48;;;3.97;;
16845;SDS011;8539;53.188;8.696;2022-12-26T18:28:16;15.52;;;2.97;;
16845;SDS011;8539;53.188;8.696;2022-12-26T18:30:43;12.13;;;3.30;;
16845;SDS011;8539;53.188;8.696;2022-12-26T18:33:10;10.20;;;3.50;;
16845;SDS011;8539;53.188;8.696;2022-12-26T18:35:37;14.95;;;3.63;;
16845;SDS011;8539;53.188;8.696;2022-12-26T18:38:05;9.95;;;3.35;;
16845;SDS011;8539;53.188;8.696;2022-12-26T18:40:34;14.73;;;3.88;;
16845;SDS011;8539;53.188;8.696;2022-12-26T18:43:02;10.07;;;3.50;;
16845;SDS011;8539;53.188;8.696;2022-12-26T18:45:29;18.63;;;3.53;;
16845;SDS011;8539;53.188;8.696;2022-12-26T18:47:55;14.30;;;3.38;;
16845;SDS011;8539;53.188;8.696;2022-12-26T18:50:22;12.55;;;3.03;;
16845;SDS011;8539;53.188;8.696;2022-12-26T18:52:49;17.13;;;3.17;;
16845;SDS011;8539;53.188;8.696;2022-12-26T18:55:15;9.27;;;2.97;;
16845;SDS011;8539;53.188;8.696;2022-12-26T18:57:41;13.80;;;2.67;;
16845;SDS011;8539;53.188;8.696;2022-12-26T19:00:07;13.85;;;3.90;;
16845;SDS011;8539;53.188;8.696;2022-12-26T19:02:37;12.77;;;3.17;;
16845;SDS011;8539;53.188;8.696;2022-12-26T19:05:03;12.30;;;4.28;;
16845;SDS011;8539;53.188;8.696;2022-12-26T19:07:29;13.30;;;3.70;;
16845;SDS011;8539;53.188;8.696;2022-12-26T19:09:55;19.13;;;4.05;;
16845;SDS011;8539;53.188;8.696;2022-12-26T19:12:24;20.77;;;2.92;;
16845;SDS011;8539;53.188;8.696;2022-12-26T19:14:51;8.77;;;2.83;;
16845;SDS011;8539;53.188;8.696;2022-12-26T19:17:17;23.42;;;3.53;;
16845;SDS011;8539;53.188;8.696;2022-12-26T19:19:43;16.08;;;5.70;;
16845;SDS011;8539;53.188;8.696;2022-12-26T19:22:09;12.80;;;2.80;;
16845;SDS011;8539;53.188;8.696;2022-12-26T19:24:36;9.93;;;2.42;;
16845;SDS011;8539;53.188;8.696;2022-12-26T19:27:02;8.38;;;2.35;;
16845;SDS011;8539;53.188;8.696;2022-12-26T19:29:28;11.00;;;2.55;;
16845;SDS011;8539;53.188;8.696;2022-12-26T19:31:54;14.85;;;3.22;;
16845;SDS011;8539;53.188;8.696;2022-12-26T19:34:21;13.23;;;2.53;;